Time;durP1;ratioP1;P1;durP2;ratioP2;P2;SDS_P1;SDS_P2;PMS_P1;PMS_P2;Temp;Humidity;BMP_temperature;BMP_pressure;BME280_temperature;BME280_humidity;BME280_pressure;Samples;Min_cycle;Max_cycle;Signal;HPM_P1;HPM_P2
2024/03/09 00:01:37;;;;;;;34.13;16.77;;;6.70;99.90;;;;;;5012703;28;20049;-67
2024/03/09 00:04:04;;;;;;;38.05;16.67;;;6.70;99.90;;;;;;5021228;28;20060;-68
2024/03/09 00:06:32;;;;;;;38.63;17.92;;;6.70;99.90;;;;;;5023939;28;20054;-70
2024/03/09 00:08:59;;;;;;;43.10;17.10;;;6.70;99.90;;;;;;5020646;28;20049;-69
2024/03/09 00:11:26;;;;;;;32.20;15.57;;;6.70;99.90;;;;;;5024221;28;20057;-69
2024/03/09 00:13:54;;;;;;;37.85;18.23;;;6.70;99.90;;;;;;5021490;28;20053;-69
2024/03/09 00:16:21;;;;;;;34.17;17.02;;;6.70;99.90;;;;;;5023058;28;20045;-69
2024/03/09 00:18:48;;;;;;;36.00;17.30;;;6.70;99.90;;;;;;5023429;28;20508;-69
2024/03/09 00:21:15;;;;;;;39.15;18.05;;;6.70;99.90;;;;;;5023452;28;20100;-69
2024/03/09 00:23:42;;;;;;;32.55;16.98;;;6.70;99.90;;;;;;5021353;28;20087;-68
2024/03/09 00:26:09;;;;;;;39.63;17.05;;;6.70;99.90;;;;;;5025569;28;20114;-68
2024/03/09 00:28:40;;;;;;;35.53;16.58;;;6.70;99.90;;;;;;5027405;28;20087;-68
2024/03/09 00:31:08;;;;;;;40.28;17.30;;;6.70;99.90;;;;;;5026896;28;20077;-68
2024/03/09 00:33:38;;;;;;;33.75;16.02;;;6.70;99.90;;;;;;5026916;28;20057;-68
2024/03/09 00:36:06;;;;;;;50.50;16.67;;;6.70;99.90;;;;;;5025615;28;20137;-69
2024/03/09 00:38:34;;;;;;;36.78;15.85;;;6.80;99.90;;;;;;5028058;28;20056;-69
2024/03/09 00:41:01;;;;;;;32.63;15.73;;;6.80;99.90;;;;;;5026750;28;20076;-68
2024/03/09 00:43:29;;;;;;;40.88;17.10;;;6.70;99.90;;;;;;5026516;28;20861;-68
2024/03/09 00:45:56;;;;;;;28.48;15.73;;;6.80;99.90;;;;;;5027331;28;20092;-68
2024/03/09 00:48:22;;;;;;;33.22;17.17;;;6.80;99.90;;;;;;5027124;28;20049;-68
2024/03/09 00:50:49;;;;;;;32.42;16.02;;;6.80;99.90;;;;;;5024784;28;20501;-68
2024/03/09 00:53:17;;;;;;;37.50;16.45;;;6.80;99.90;;;;;;5024108;28;20041;-69
2024/03/09 00:55:44;;;;;;;34.10;16.80;;;6.80;99.90;;;;;;5025669;28;20477;-68
2024/03/09 00:58:14;;;;;;;33.95;16.95;;;6.80;99.90;;;;;;5025241;28;20042;-68
2024/03/09 01:00:46;;;;;;;27.90;15.13;;;6.80;99.90;;;;;;5024785;28;20042;-68
2024/03/09 01:03:13;;;;;;;32.95;15.50;;;6.90;99.90;;;;;;5025817;28;20049;-68
2024/03/09 01:05:44;;;;;;;29.33;14.95;;;6.90;99.90;;;;;;5024816;28;20135;-68
2024/03/09 01:08:13;;;;;;;35.10;16.40;;;6.90;99.90;;;;;;5024922;28;20096;-67
2024/03/09 01:10:43;;;;;;;35.50;16.45;;;6.90;99.90;;;;;;5023477;28;20049;-68
2024/03/09 01:13:11;;;;;;;39.10;17.38;;;6.90;99.90;;;;;;5028369;28;20709;-69
2024/03/09 01:15:37;;;;;;;31.95;15.40;;;6.90;99.90;;;;;;5026551;28;20053;-68
2024/03/09 01:18:04;;;;;;;37.13;15.43;;;6.90;99.90;;;;;;5025420;28;20042;-68
2024/03/09 01:20:31;;;;;;;31.17;16.38;;;6.90;99.90;;;;;;5027114;28;20142;-68
2024/03/09 01:22:58;;;;;;;29.45;16.55;;;6.90;99.90;;;;;;5022170;28;20120;-68
2024/03/09 01:25:25;;;;;;;31.08;16.40;;;6.90;99.90;;;;;;5021821;28;20045;-68
2024/03/09 01:27:52;;;;;;;32.38;16.83;;;6.90;99.90;;;;;;5020347;28;20085;-68
2024/03/09 01:30:18;;;;;;;38.85;15.57;;;6.90;99.90;;;;;;5026296;28;20045;-68
2024/03/09 01:32:46;;;;;;;28.98;14.57;;;6.90;99.90;;;;;;5021578;28;20091;-68
2024/03/09 01:35:15;;;;;;;37.17;15.27;;;6.90;99.90;;;;;;5022512;28;20068;-68
2024/03/09 01:37:42;;;;;;;35.95;18.38;;;6.80;99.90;;;;;;5026984;28;20064;-67
2024/03/09 01:40:10;;;;;;;30.58;15.80;;;6.80;99.90;;;;;;5026131;28;20112;-68
2024/03/09 01:42:37;;;;;;;40.67;16.48;;;6.80;99.90;;;;;;5023491;28;20049;-68
2024/03/09 01:45:05;;;;;;;32.88;15.55;;;6.80;99.90;;;;;;5010939;28;20444;-68
2024/03/09 01:47:32;;;;;;;33.92;16.17;;;6.90;99.90;;;;;;5025261;28;20052;-68
2024/03/09 01:49:59;;;;;;;33.15;16.15;;;6.90;99.90;;;;;;5024738;28;20072;-67
2024/03/09 01:52:31;;;;;;;37.55;17.02;;;6.90;99.90;;;;;;5025638;28;20061;-67
2024/03/09 01:54:59;;;;;;;31.05;15.88;;;6.90;99.90;;;;;;5021568;28;20133;-67
2024/03/09 01:57:25;;;;;;;35.90;16.98;;;6.90;99.90;;;;;;5023012;28;20285;-67
2024/03/09 01:59:55;;;;;;;32.30;15.30;;;6.90;99.90;;;;;;5025703;28;20042;-67
2024/03/09 02:02:22;;;;;;;30.75;14.98;;;6.80;99.90;;;;;;5017378;28;20056;-67
2024/03/09 02:04:49;;;;;;;33.05;15.20;;;6.80;99.90;;;;;;5025693;28;20048;-67
2024/03/09 02:07:16;;;;;;;31.15;17.08;;;6.80;99.90;;;;;;5022628;28;20038;-68
2024/03/09 02:09:44;;;;;;;34.40;15.95;;;6.80;99.90;;;;;;5034256;28;20104;-68
2024/03/09 02:12:11;;;;;;;38.20;15.85;;;6.80;99.90;;;;;;5019709;28;20051;-68
2024/03/09 02:14:37;;;;;;;28.05;15.40;;;6.80;99.90;;;;;;5028892;28;20053;-68
2024/03/09 02:17:07;;;;;;;34.47;15.15;;;6.70;99.90;;;;;;5019187;28;20042;-69
2024/03/09 02:19:38;;;;;;;25.48;14.93;;;6.80;99.90;;;;;;5019267;28;20049;-68
2024/03/09 02:22:06;;;;;;;31.23;15.32;;;6.70;99.90;;;;;;5020936;28;20045;-69
2024/03/09 02:24:35;;;;;;;24.55;15.00;;;6.70;99.90;;;;;;5022528;28;20046;-67
2024/03/09 02:27:01;;;;;;;26.02;15.18;;;6.70;99.90;;;;;;5023667;28;20068;-68
2024/03/09 02:29:29;;;;;;;35.92;16.10;;;6.80;99.90;;;;;;5017440;28;20443;-68
2024/03/09 02:31:56;;;;;;;33.80;15.35;;;6.70;99.90;;;;;;5024236;28;20057;-69
2024/03/09 02:34:23;;;;;;;37.75;15.52;;;6.70;99.90;;;;;;5018815;28;20038;-69
2024/03/09 02:36:50;;;;;;;28.67;15.02;;;6.60;99.90;;;;;;5019816;28;20046;-69
2024/03/09 02:39:17;;;;;;;26.73;13.93;;;6.70;99.90;;;;;;5024731;28;20100;-69
2024/03/09 02:41:44;;;;;;;30.55;14.20;;;6.70;99.90;;;;;;5023404;28;20058;-69
2024/03/09 02:44:11;;;;;;;30.85;15.93;;;6.70;99.90;;;;;;5024083;28;20049;-68
2024/03/09 02:46:39;;;;;;;26.02;13.70;;;6.80;99.90;;;;;;5025265;28;20064;-68
2024/03/09 02:49:06;;;;;;;30.58;13.25;;;6.80;99.90;;;;;;5027004;28;20049;-68
2024/03/09 02:51:33;;;;;;;31.35;13.60;;;6.80;99.90;;;;;;5027093;28;20143;-67
2024/03/09 02:54:00;;;;;;;25.95;13.63;;;6.90;99.90;;;;;;5023412;28;20489;-68
2024/03/09 02:56:27;;;;;;;26.02;12.80;;;6.90;99.90;;;;;;5024271;28;20049;-68
2024/03/09 02:58:54;;;;;;;27.17;14.07;;;6.90;99.90;;;;;;5025881;28;20043;-67
2024/03/09 03:01:22;;;;;;;24.48;12.30;;;6.90;99.90;;;;;;5024131;28;20045;-69
2024/03/09 03:04:02;;;;;;;21.85;11.90;;;6.90;99.90;;;;;;5024330;28;20099;-68
2024/03/09 03:06:31;;;;;;;31.27;14.63;;;6.90;99.90;;;;;;5027493;28;20119;-67
2024/03/09 03:09:11;;;;;;;18.00;10.80;;;7.00;99.90;;;;;;5025895;28;20051;-67
2024/03/09 03:11:40;;;;;;;21.05;11.75;;;7.10;99.90;;;;;;5024334;28;20080;-67
2024/03/09 03:14:09;;;;;;;19.90;10.35;;;7.20;99.90;;;;;;5021798;28;20054;-68
2024/03/09 03:16:36;;;;;;;20.30;10.55;;;7.30;99.90;;;;;;5020784;28;20057;-68
2024/03/09 03:19:07;;;;;;;22.90;10.05;;;7.30;99.90;;;;;;5028540;28;20065;-67
2024/03/09 03:21:35;;;;;;;18.95;10.40;;;7.40;99.90;;;;;;5042354;28;20065;-68
2024/03/09 03:24:02;;;;;;;26.55;11.45;;;7.40;99.90;;;;;;5029116;28;20413;-69
2024/03/09 03:26:32;;;;;;;20.67;11.23;;;7.50;99.90;;;;;;5029585;28;20053;-67
2024/03/09 03:29:01;;;;;;;19.25;10.77;;;7.60;99.90;;;;;;5025900;28;20045;-69
2024/03/09 03:31:29;;;;;;;19.15;10.88;;;7.60;99.90;;;;;;5027001;28;20073;-66
2024/03/09 03:33:56;;;;;;;23.92;11.65;;;7.60;99.90;;;;;;5024614;28;20084;-67
2024/03/09 03:36:24;;;;;;;18.05;10.10;;;7.60;99.90;;;;;;5026587;28;20071;-68
2024/03/09 03:38:51;;;;;;;19.25;9.80;;;7.70;99.90;;;;;;5028388;28;20046;-67
2024/03/09 03:41:22;;;;;;;20.02;10.80;;;7.70;99.90;;;;;;5026414;28;20176;-70
2024/03/09 03:43:49;;;;;;;21.52;10.43;;;7.70;99.90;;;;;;5028032;28;20041;-69
2024/03/09 03:46:16;;;;;;;25.73;10.73;;;7.70;99.90;;;;;;5027507;28;20508;-68
2024/03/09 03:48:46;;;;;;;21.77;10.07;;;7.70;99.90;;;;;;5027399;28;20071;-69
2024/03/09 03:51:14;;;;;;;18.17;9.45;;;7.70;99.90;;;;;;5027025;28;20081;-70
2024/03/09 03:53:42;;;;;;;21.63;11.23;;;7.60;99.90;;;;;;5028197;28;20132;-68
2024/03/09 03:56:09;;;;;;;20.10;10.15;;;7.60;99.90;;;;;;5020184;28;20050;-68
2024/03/09 03:58:37;;;;;;;20.00;10.48;;;7.60;99.90;;;;;;5027064;28;20053;-68
2024/03/09 04:01:04;;;;;;;21.63;9.70;;;7.60;99.90;;;;;;5027588;28;20053;-68
2024/03/09 04:03:31;;;;;;;18.15;10.02;;;7.60;99.90;;;;;;5027133;28;20053;-67
2024/03/09 04:06:02;;;;;;;23.25;9.85;;;7.60;99.90;;;;;;5028291;28;20077;-67
2024/03/09 04:08:29;;;;;;;23.80;9.52;;;7.60;99.90;;;;;;5028075;28;20056;-68
2024/03/09 04:10:57;;;;;;;17.55;8.40;;;7.60;99.90;;;;;;5027217;28;20057;-68
2024/03/09 04:13:24;;;;;;;17.80;8.57;;;7.60;99.90;;;;;;5025141;28;20049;-68
2024/03/09 04:15:52;;;;;;;15.90;9.15;;;7.60;99.90;;;;;;5028229;28;20056;-67
2024/03/09 04:18:21;;;;;;;18.40;8.95;;;7.70;99.90;;;;;;5022480;28;20050;-68
2024/03/09 04:20:48;;;;;;;18.80;8.80;;;7.60;99.90;;;;;;5019450;28;20057;-68
2024/03/09 04:23:18;;;;;;;16.17;8.85;;;7.70;99.90;;;;;;5024429;28;20065;-68
2024/03/09 04:25:46;;;;;;;16.42;7.93;;;7.70;99.90;;;;;;5028092;28;20045;-68
2024/03/09 04:28:20;;;;;;;18.23;10.50;;;7.80;99.90;;;;;;5027891;28;20042;-68
2024/03/09 04:30:49;;;;;;;17.08;7.85;;;7.80;99.90;;;;;;5015113;28;20057;-68
2024/03/09 04:33:19;;;;;;;25.58;8.25;;;7.80;99.90;;;;;;5021295;28;20087;-68
2024/03/09 04:35:47;;;;;;;17.90;7.18;;;7.90;99.90;;;;;;5021021;28;20061;-68
2024/03/09 04:38:15;;;;;;;20.50;7.22;;;7.90;99.90;;;;;;5027410;28;20062;-67
2024/03/09 04:40:43;;;;;;;13.60;7.38;;;7.90;99.90;;;;;;5027043;28;20053;-68
2024/03/09 04:43:13;;;;;;;10.98;6.65;;;8.00;99.90;;;;;;5025803;28;20041;-68
2024/03/09 04:45:40;;;;;;;12.63;5.97;;;8.00;99.90;;;;;;5024574;28;20069;-68
2024/03/09 04:48:09;;;;;;;11.02;6.07;;;8.00;99.90;;;;;;5019747;28;20547;-68
2024/03/09 04:50:38;;;;;;;10.55;4.90;;;8.00;99.90;;;;;;5026653;28;20053;-68
2024/03/09 04:53:06;;;;;;;13.30;5.32;;;8.00;99.90;;;;;;5034107;28;20053;-68
2024/03/09 04:55:35;;;;;;;10.63;4.95;;;8.10;99.90;;;;;;5026836;28;20045;-69
2024/03/09 04:58:13;;;;;;;8.90;4.47;;;8.10;99.90;;;;;;5027802;28;20053;-67
2024/03/09 05:00:41;;;;;;;11.00;4.40;;;8.20;99.90;;;;;;5025400;28;20076;-68
2024/03/09 05:03:08;;;;;;;7.90;4.10;;;8.20;99.90;;;;;;5038986;28;20053;-68
2024/03/09 05:05:34;;;;;;;8.63;5.28;;;8.20;99.90;;;;;;5027715;28;20655;-68
2024/03/09 05:08:02;;;;;;;12.25;5.00;;;8.20;99.90;;;;;;5025755;28;20052;-68
2024/03/09 05:10:30;;;;;;;25.45;7.30;;;8.30;99.90;;;;;;5026254;28;20045;-68
2024/03/09 05:12:57;;;;;;;9.55;3.88;;;8.20;99.90;;;;;;5031855;28;20044;-68
2024/03/09 05:15:25;;;;;;;10.50;4.47;;;8.30;99.90;;;;;;5032317;28;20489;-68
2024/03/09 05:17:52;;;;;;;9.00;4.03;;;8.30;99.90;;;;;;5025735;28;20053;-67
2024/03/09 05:20:23;;;;;;;8.13;4.20;;;8.30;99.90;;;;;;5026872;28;20073;-68
2024/03/09 05:22:54;;;;;;;8.98;3.83;;;8.30;99.90;;;;;;5027031;28;20222;-68
2024/03/09 05:25:21;;;;;;;7.00;3.30;;;8.30;99.90;;;;;;5026358;28;20073;-68
2024/03/09 05:27:49;;;;;;;8.30;3.22;;;8.30;99.90;;;;;;5025775;28;20132;-68
2024/03/09 05:30:18;;;;;;;6.35;3.38;;;8.30;99.90;;;;;;5024140;28;20045;-68
2024/03/09 05:32:57;;;;;;;9.68;2.75;;;8.30;99.90;;;;;;5025423;28;20053;-68
2024/03/09 05:35:28;;;;;;;6.20;2.90;;;8.30;99.90;;;;;;5018284;28;20121;-68
2024/03/09 05:37:56;;;;;;;3.90;2.30;;;8.30;99.90;;;;;;5026438;28;20056;-68
2024/03/09 05:40:26;;;;;;;4.47;1.75;;;8.30;99.90;;;;;;5025807;28;20048;-68
2024/03/09 05:42:55;;;;;;;8.32;2.55;;;8.30;99.90;;;;;;5024035;28;20072;-67
2024/03/09 05:45:22;;;;;;;3.47;2.00;;;8.30;99.90;;;;;;5054734;28;20072;-68
2024/03/09 05:47:56;;;;;;;12.77;3.05;;;8.30;99.90;;;;;;5022034;28;20053;-68
2024/03/09 05:50:29;;;;;;;6.97;1.70;;;8.20;99.90;;;;;;5025125;28;20041;-68
2024/03/09 05:53:01;;;;;;;6.10;1.60;;;8.20;99.90;;;;;;5021340;28;20138;-68
2024/03/09 05:55:28;;;;;;;4.60;1.23;;;8.20;99.90;;;;;;5022228;28;20091;-67
2024/03/09 05:57:55;;;;;;;3.17;1.25;;;8.10;99.90;;;;;;5026103;28;20099;-68
2024/03/09 06:00:27;;;;;;;4.38;0.82;;;8.00;99.90;;;;;;5019442;28;20037;-68
2024/03/09 06:02:56;;;;;;;3.50;1.00;;;8.00;99.90;;;;;;5025112;28;20128;-68
2024/03/09 06:05:25;;;;;;;3.17;1.30;;;7.90;99.90;;;;;;5026617;28;20050;-68
2024/03/09 06:07:54;;;;;;;2.75;0.82;;;7.90;99.90;;;;;;5025133;28;20049;-67
2024/03/09 06:10:21;;;;;;;5.25;2.97;;;7.80;99.90;;;;;;5026282;28;20045;-68
2024/03/09 06:12:49;;;;;;;5.05;0.77;;;7.80;99.90;;;;;;5024207;28;20049;-68
2024/03/09 06:15:16;;;;;;;2.45;0.88;;;7.70;99.90;;;;;;5025360;28;20045;-68
2024/03/09 06:17:52;;;;;;;2.30;0.60;;;7.60;99.90;;;;;;5025351;28;20591;-68
2024/03/09 06:20:19;;;;;;;3.30;0.73;;;7.60;99.90;;;;;;5027014;28;20064;-68
2024/03/09 06:22:46;;;;;;;3.78;0.90;;;7.60;99.90;;;;;;5025798;28;20049;-68
2024/03/09 06:25:25;;;;;;;5.78;0.85;;;7.50;99.90;;;;;;5026515;28;20099;-68
2024/03/09 06:27:52;;;;;;;5.97;0.60;;;7.40;99.90;;;;;;5025737;28;20045;-68
2024/03/09 06:30:20;;;;;;;1.90;0.75;;;7.40;99.90;;;;;;5025552;28;20049;-68
2024/03/09 06:32:49;;;;;;;7.00;1.35;;;7.30;99.90;;;;;;5024476;28;20516;-68
2024/03/09 06:35:19;;;;;;;1.92;0.73;;;7.30;99.90;;;;;;5024489;28;20152;-68
2024/03/09 06:37:47;;;;;;;1.27;0.50;;;7.30;99.90;;;;;;5026298;28;20134;-68
2024/03/09 06:40:14;;;;;;;1.13;0.70;;;7.20;99.90;;;;;;5025885;28;20049;-68
2024/03/09 06:42:42;;;;;;;3.70;0.77;;;7.20;99.90;;;;;;5024121;28;20060;-66
2024/03/09 06:45:09;;;;;;;1.70;0.80;;;7.20;99.90;;;;;;5025088;28;20472;-67
2024/03/09 06:47:36;;;;;;;7.55;1.98;;;7.20;99.90;;;;;;5025258;28;20089;-67
2024/03/09 06:50:04;;;;;;;2.10;0.80;;;7.10;99.90;;;;;;5025143;28;20052;-67
2024/03/09 06:52:33;;;;;;;3.50;0.77;;;7.10;99.90;;;;;;5030549;28;20049;-69
2024/03/09 06:55:00;;;;;;;4.22;0.73;;;7.10;99.90;;;;;;5023120;28;20045;-67
2024/03/09 06:57:27;;;;;;;8.98;1.40;;;7.10;99.90;;;;;;5028102;28;20046;-67
2024/03/09 06:59:54;;;;;;;2.85;0.50;;;7.10;99.90;;;;;;5026522;28;20068;-69
2024/03/09 07:02:21;;;;;;;1.65;0.80;;;7.10;99.90;;;;;;5029150;28;20103;-67
2024/03/09 07:04:50;;;;;;;5.70;0.77;;;7.20;99.90;;;;;;5026412;28;20132;-68
2024/03/09 07:07:17;;;;;;;3.05;1.10;;;7.20;99.90;;;;;;5029795;28;20046;-67
2024/03/09 07:09:53;;;;;;;3.49;0.76;;;7.10;99.90;;;;;;4995744;28;10001338;-69
2024/03/09 07:12:21;;;;;;;7.68;0.75;;;7.20;99.90;;;;;;5025914;28;20276;-67
2024/03/09 07:14:48;;;;;;;1.60;1.00;;;7.20;99.90;;;;;;5023569;28;20049;-67
2024/03/09 07:17:17;;;;;;;10.68;1.20;;;7.20;99.90;;;;;;5022205;28;20076;-66
2024/03/09 07:19:48;;;;;;;3.08;1.23;;;7.20;99.90;;;;;;5025938;28;20651;-67
2024/03/09 07:22:15;;;;;;;18.17;1.42;;;7.20;99.90;;;;;;5019270;28;20057;-67
2024/03/09 07:24:42;;;;;;;2.03;1.23;;;7.20;99.90;;;;;;5023804;28;20123;-69
2024/03/09 07:27:11;;;;;;;3.90;1.33;;;7.30;99.90;;;;;;5024905;28;20607;-67
2024/03/09 07:29:38;;;;;;;3.65;1.35;;;7.30;99.90;;;;;;5022452;28;20564;-67
2024/03/09 07:32:06;;;;;;;5.15;1.38;;;7.30;99.90;;;;;;5025676;28;20100;-67
2024/03/09 07:34:38;;;;;;;4.53;1.60;;;7.40;99.90;;;;;;5021807;28;20056;-67
2024/03/09 07:37:05;;;;;;;3.83;1.60;;;7.40;99.90;;;;;;5024592;28;20060;-67
2024/03/09 07:39:37;;;;;;;3.40;1.75;;;7.40;99.90;;;;;;5023094;28;20154;-67
2024/03/09 07:42:05;;;;;;;3.67;1.88;;;7.40;99.90;;;;;;5031384;28;20488;-67
2024/03/09 07:44:32;;;;;;;3.30;1.75;;;7.50;99.90;;;;;;5028219;28;20049;-67
2024/03/09 07:47:00;;;;;;;3.25;1.88;;;7.50;99.90;;;;;;5021334;28;20061;-67
2024/03/09 07:49:27;;;;;;;3.78;2.03;;;7.50;99.90;;;;;;5024200;28;20399;-67
2024/03/09 07:51:56;;;;;;;6.93;2.60;;;7.60;99.90;;;;;;5033652;28;20190;-68
2024/03/09 07:54:23;;;;;;;3.75;2.55;;;7.60;99.90;;;;;;5024138;28;20084;-68
2024/03/09 07:56:49;;;;;;;5.57;2.72;;;7.70;99.90;;;;;;5025206;28;20168;-68
2024/03/09 07:59:17;;;;;;;7.53;2.80;;;7.70;99.90;;;;;;5033043;28;20569;-69
2024/03/09 08:01:45;;;;;;;4.10;2.70;;;7.70;99.90;;;;;;5023396;28;20045;-68
2024/03/09 08:04:14;;;;;;;6.30;3.05;;;7.70;99.90;;;;;;5023291;28;20084;-68
2024/03/09 08:06:43;;;;;;;7.43;3.60;;;7.70;99.90;;;;;;5027192;28;20500;-68
2024/03/09 08:09:13;;;;;;;4.65;2.90;;;7.80;99.90;;;;;;5028598;28;20041;-68
2024/03/09 08:11:40;;;;;;;6.18;2.72;;;7.80;99.90;;;;;;5027271;28;20057;-68
2024/03/09 08:14:07;;;;;;;11.98;3.22;;;7.90;99.90;;;;;;5026082;28;20050;-67
2024/03/09 08:16:34;;;;;;;9.60;3.55;;;8.00;99.90;;;;;;5026566;28;20072;-68
2024/03/09 08:19:00;;;;;;;5.90;3.92;;;8.00;99.90;;;;;;5028448;28;20046;-68
2024/03/09 08:21:27;;;;;;;5.78;3.45;;;8.10;99.90;;;;;;5022871;28;20046;-59
2024/03/09 08:23:54;;;;;;;8.65;4.18;;;8.10;99.90;;;;;;5025067;28;20081;-56
2024/03/09 08:26:21;;;;;;;9.15;3.90;;;8.20;99.90;;;;;;5021018;28;20496;-57
2024/03/09 08:28:47;;;;;;;7.30;4.50;;;8.30;99.90;;;;;;5013558;28;20049;-56
2024/03/09 08:31:15;;;;;;;8.27;4.03;;;8.30;99.90;;;;;;5009045;28;20132;-58
2024/03/09 08:33:42;;;;;;;9.00;4.30;;;8.30;99.90;;;;;;5024161;28;20049;-59
2024/03/09 08:36:10;;;;;;;7.15;3.83;;;8.40;99.90;;;;;;5025046;28;20697;-58
2024/03/09 08:38:39;;;;;;;12.32;5.00;;;8.50;99.90;;;;;;5019036;28;20054;-57
2024/03/09 08:41:05;;;;;;;8.13;4.75;;;8.60;99.90;;;;;;5037300;28;20117;-57
2024/03/09 08:43:32;;;;;;;10.70;5.07;;;8.70;99.90;;;;;;5026968;28;20045;-59
2024/03/09 08:46:00;;;;;;;8.97;4.27;;;8.70;99.90;;;;;;4990804;28;1113859;-59
2024/03/09 08:48:27;;;;;;;8.52;4.72;;;8.80;99.90;;;;;;5024430;28;20184;-58
2024/03/09 08:50:54;;;;;;;10.07;4.65;;;8.80;99.90;;;;;;5027776;28;20061;-58
2024/03/09 08:53:21;;;;;;;7.70;4.95;;;8.90;99.90;;;;;;5032894;28;20103;-59
2024/03/09 08:55:48;;;;;;;8.15;3.90;;;8.90;99.90;;;;;;5023757;28;20048;-59
2024/03/09 08:58:15;;;;;;;8.25;5.07;;;8.90;99.90;;;;;;5019497;28;20120;-63
2024/03/09 09:00:42;;;;;;;6.82;4.68;;;9.00;99.90;;;;;;5022755;28;20485;-58
2024/03/09 09:03:11;;;;;;;11.38;5.38;;;9.00;99.90;;;;;;5024888;28;20059;-59
2024/03/09 09:05:37;;;;;;;6.72;4.38;;;9.00;99.90;;;;;;5034449;28;20041;-60
2024/03/09 09:08:05;;;;;;;8.63;4.47;;;9.00;99.90;;;;;;5022004;28;20132;-60
2024/03/09 09:10:35;;;;;;;8.40;5.25;;;9.20;99.90;;;;;;5032633;28;20041;-59
2024/03/09 09:13:02;;;;;;;12.20;5.13;;;9.40;99.90;;;;;;5028219;28;20046;-60
2024/03/09 09:15:29;;;;;;;7.63;4.50;;;9.50;99.90;;;;;;5031835;28;20221;-60
2024/03/09 09:17:56;;;;;;;11.90;5.70;;;9.60;99.90;;;;;;5026794;28;20087;-59
2024/03/09 09:20:24;;;;;;;15.55;4.93;;;9.60;99.90;;;;;;5028150;28;20042;-60
2024/03/09 09:22:53;;;;;;;7.45;4.68;;;9.70;99.90;;;;;;5024367;28;20092;-60
2024/03/09 09:25:25;;;;;;;8.97;4.43;;;9.70;99.90;;;;;;4680672;28;10000677;-60
2024/03/09 09:27:59;;;;;;;7.03;4.50;;;9.80;99.90;;;;;;5016804;28;20400;-60
2024/03/09 09:30:26;;;;;;;11.32;5.45;;;9.80;99.90;;;;;;5022106;28;20116;-60
2024/03/09 09:32:53;;;;;;;6.85;4.28;;;9.80;99.90;;;;;;5022503;28;20168;-60
2024/03/09 09:35:20;;;;;;;6.50;3.72;;;9.90;99.90;;;;;;5022695;28;20041;-60
2024/03/09 09:37:47;;;;;;;10.70;4.78;;;9.90;99.90;;;;;;5019263;28;20049;-60
2024/03/09 09:40:14;;;;;;;8.30;4.93;;;10.00;99.90;;;;;;5022119;28;20042;-60
2024/03/09 09:42:44;;;;;;;7.47;4.70;;;10.10;99.90;;;;;;5034610;28;20136;-60
2024/03/09 09:45:21;;;;;;;10.65;5.28;;;10.10;99.90;;;;;;5028818;28;20053;-60
2024/03/09 09:47:48;;;;;;;8.50;5.13;;;10.20;99.90;;;;;;5032396;28;20059;-59
2024/03/09 09:50:18;;;;;;;9.93;5.20;;;10.30;99.90;;;;;;5024532;28;20061;-60
2024/03/09 09:52:48;;;;;;;7.93;4.80;;;10.40;99.90;;;;;;5022634;28;20058;-59
2024/03/09 09:55:16;;;;;;;11.20;4.80;;;10.50;99.90;;;;;;5024661;28;20436;-59
2024/03/09 09:57:45;;;;;;;8.13;4.30;;;10.50;99.90;;;;;;5019998;28;20057;-60
2024/03/09 10:00:13;;;;;;;9.00;4.95;;;10.70;99.90;;;;;;5022252;28;20099;-60
2024/03/09 10:02:40;;;;;;;7.85;4.07;;;10.80;99.90;;;;;;5021816;28;20071;-60
2024/03/09 10:05:14;;;;;;;6.82;4.15;;;10.90;99.90;;;;;;5020387;28;20045;-60
2024/03/09 10:08:04;;;;;;;7.07;4.13;;;11.00;99.90;;;;;;5034838;28;20099;-60
2024/03/09 10:10:32;;;;;;;8.40;3.78;;;11.10;99.90;;;;;;5021599;28;20060;-62
2024/03/09 10:13:12;;;;;;;7.57;4.03;;;11.20;99.90;;;;;;5024874;28;20049;-60
2024/03/09 10:15:40;;;;;;;6.82;3.90;;;11.40;99.90;;;;;;5030323;28;20132;-61
2024/03/09 10:18:08;;;;;;;7.95;4.20;;;11.40;99.90;;;;;;5023085;28;20053;-59
2024/03/09 10:20:36;;;;;;;5.80;3.80;;;11.40;99.90;;;;;;5022465;28;20653;-60
2024/03/09 10:23:08;;;;;;;8.07;4.03;;;11.50;99.90;;;;;;5021021;28;20516;-59
2024/03/09 10:25:36;;;;;;;5.63;2.70;;;11.50;99.90;;;;;;5022084;28;20060;-60
2024/03/09 10:28:05;;;;;;;6.35;3.08;;;11.60;99.90;;;;;;5030735;28;20045;-60
2024/03/09 10:30:32;;;;;;;4.78;2.72;;;11.60;99.90;;;;;;5021456;28;20092;-59
2024/03/09 10:32:58;;;;;;;5.60;2.85;;;11.50;99.90;;;;;;5022335;28;20079;-61
2024/03/09 10:35:26;;;;;;;3.80;2.03;;;11.50;99.90;;;;;;5014886;28;20198;-59
2024/03/09 10:37:57;;;;;;;3.60;2.33;;;11.50;99.90;;;;;;5022286;28;21025;-61
2024/03/09 10:40:25;;;;;;;7.75;3.00;;;11.50;99.90;;;;;;5017607;28;20045;-59
2024/03/09 10:42:53;;;;;;;4.97;2.65;;;11.60;99.90;;;;;;5022017;28;20516;-59
2024/03/09 10:45:22;;;;;;;4.47;2.60;;;11.60;99.90;;;;;;5024669;28;20045;-60
2024/03/09 10:47:53;;;;;;;4.45;2.17;;;11.80;99.90;;;;;;5025413;28;20098;-59
2024/03/09 10:50:24;;;;;;;6.60;2.60;;;11.90;99.90;;;;;;5017882;28;20610;-60
2024/03/09 10:53:07;;;;;;;5.25;2.40;;;11.90;99.90;;;;;;5023608;28;20112;-60
2024/03/09 10:55:48;;;;;;;3.10;1.83;;;12.00;99.90;;;;;;5013146;28;20049;-60
2024/03/09 10:58:15;;;;;;;4.30;1.80;;;12.00;99.90;;;;;;5020686;28;20064;-60
2024/03/09 11:00:49;;;;;;;3.92;2.20;;;12.20;99.90;;;;;;5024064;28;20077;-60
2024/03/09 11:03:20;;;;;;;8.80;4.20;;;12.30;99.90;;;;;;5005498;28;20050;-59
2024/03/09 11:05:53;;;;;;;6.03;3.50;;;12.30;99.90;;;;;;5023684;28;20056;-60
2024/03/09 11:08:22;;;;;;;10.10;4.93;;;12.30;99.90;;;;;;5023407;28;20046;-60
2024/03/09 11:10:49;;;;;;;8.02;4.60;;;12.20;99.90;;;;;;5036735;28;20059;-60
2024/03/09 11:13:18;;;;;;;8.27;4.35;;;12.30;99.90;;;;;;5024392;28;20095;-60
2024/03/09 11:15:54;;;;;;;8.50;4.13;;;12.30;99.90;;;;;;5022138;28;20053;-60
2024/03/09 11:18:21;;;;;;;14.85;4.53;;;12.50;99.90;;;;;;5023567;28;20075;-60
2024/03/09 11:20:59;;;;;;;9.73;6.18;;;12.60;99.90;;;;;;5025920;28;20057;-59
2024/03/09 11:23:31;;;;;;;12.80;8.20;;;12.80;99.90;;;;;;5026952;28;20049;-59
2024/03/09 11:25:58;;;;;;;18.98;9.15;;;12.90;99.90;;;;;;5023746;28;20060;-59
2024/03/09 11:28:41;;;;;;;14.27;7.97;;;12.90;99.90;;;;;;5024328;28;20048;-59
2024/03/09 11:31:11;;;;;;;18.70;8.73;;;12.80;99.90;;;;;;5015403;28;20056;-58
2024/03/09 11:33:49;;;;;;;12.32;7.30;;;12.60;99.90;;;;;;5024474;28;20053;-58
2024/03/09 11:36:44;;;;;;;26.67;9.70;;;12.50;99.90;;;;;;5023083;28;20045;-59
2024/03/09 11:39:14;;;;;;;18.90;9.90;;;12.50;99.90;;;;;;5020490;28;20476;-60
2024/03/09 11:41:46;;;;;;;18.27;9.07;;;12.30;99.90;;;;;;5022208;28;20426;-59
2024/03/09 11:44:20;;;;;;;21.73;8.73;;;12.30;99.90;;;;;;5022877;28;20051;-59
2024/03/09 11:46:48;;;;;;;15.77;8.05;;;12.30;99.90;;;;;;5027954;28;20064;-59
2024/03/09 11:49:16;;;;;;;17.13;7.03;;;12.40;99.90;;;;;;5035405;28;20057;-59
2024/03/09 11:51:43;;;;;;;11.18;7.18;;;12.30;99.90;;;;;;5025920;28;20050;-59
2024/03/09 11:54:11;;;;;;;14.88;8.63;;;12.30;99.90;;;;;;5028152;28;20107;-58
2024/03/09 11:56:38;;;;;;;12.80;7.18;;;12.30;99.90;;;;;;5028137;28;20049;-58
2024/03/09 11:59:10;;;;;;;18.23;8.35;;;12.40;99.90;;;;;;5029376;28;20049;-60
2024/03/09 12:01:41;;;;;;;14.65;7.70;;;12.40;99.90;;;;;;5028338;28;20085;-59
2024/03/09 12:04:08;;;;;;;12.52;7.20;;;12.30;99.90;;;;;;5023015;28;20061;-59
2024/03/09 12:06:35;;;;;;;12.40;6.90;;;12.30;99.90;;;;;;5034248;28;20045;-59
2024/03/09 12:09:02;;;;;;;10.93;7.25;;;12.30;99.90;;;;;;5026250;28;20049;-59
2024/03/09 12:11:30;;;;;;;15.70;7.25;;;12.30;99.90;;;;;;5033912;28;20138;-59
2024/03/09 12:13:57;;;;;;;12.40;7.50;;;12.30;99.90;;;;;;5030402;28;20054;-58
2024/03/09 12:16:26;;;;;;;10.48;7.25;;;12.30;99.90;;;;;;5026901;28;20046;-57
2024/03/09 12:18:58;;;;;;;14.90;7.72;;;12.40;99.90;;;;;;5024819;28;20045;-57
2024/03/09 12:21:25;;;;;;;16.77;9.38;;;12.50;99.90;;;;;;4675250;28;9999912;-57
2024/03/09 12:23:53;;;;;;;14.20;7.82;;;12.40;99.90;;;;;;5021553;28;20365;-57
2024/03/09 12:26:21;;;;;;;12.77;7.80;;;12.40;99.90;;;;;;5023947;28;20049;-57
2024/03/09 12:28:48;;;;;;;13.07;8.60;;;12.50;99.90;;;;;;5024625;28;20100;-58
2024/03/09 12:31:15;;;;;;;15.50;8.63;;;12.60;99.90;;;;;;5045129;28;20050;-61
2024/03/09 12:33:46;;;;;;;18.27;9.80;;;12.70;99.90;;;;;;5020861;28;20099;-58
2024/03/09 12:36:17;;;;;;;21.95;10.90;;;12.70;99.90;;;;;;5024108;28;20069;-59
2024/03/09 12:38:44;;;;;;;21.05;9.90;;;12.70;99.90;;;;;;5013479;28;20115;-59
2024/03/09 12:41:24;;;;;;;18.02;8.93;;;12.70;99.90;;;;;;5019578;28;20152;-60
2024/03/09 12:43:51;;;;;;;17.83;8.10;;;12.80;99.90;;;;;;5023312;28;20049;-58
2024/03/09 12:46:18;;;;;;;21.58;8.88;;;12.80;99.90;;;;;;5024285;28;20065;-57
2024/03/09 12:48:45;;;;;;;15.65;8.48;;;12.70;99.90;;;;;;5024722;28;20076;-59
2024/03/09 12:51:13;;;;;;;16.27;8.90;;;12.60;99.90;;;;;;5021331;28;20141;-57
2024/03/09 12:53:40;;;;;;;17.05;8.52;;;12.70;99.90;;;;;;5023454;28;20394;-58